createdAt,value
2023-05-09T00:01:13.469Z,12.41
2023-05-09T00:06:15.571Z,12.43
2023-05-09T00:11:17.331Z,12.48
2023-05-09T00:16:20.627Z,12.50
2023-05-09T00:21:22.508Z,12.42
2023-05-09T00:26:24.377Z,12.41
2023-05-09T00:31:26.694Z,12.45
2023-05-09T00:36:28.568Z,12.43
2023-05-09T00:41:30.232Z,12.44
2023-05-09T00:46:32.430Z,12.46
2023-05-09T00:51:36.673Z,12.52
2023-05-09T00:56:39.516Z,12.53
2023-05-09T01:01:41.607Z,12.61
2023-05-09T01:07:02.536Z,12.72
2023-05-09T01:12:31.271Z,12.82
2023-05-09T01:17:55.443Z,12.95
2023-05-09T01:23:17.305Z,13.01
2023-05-09T01:28:51.787Z,13.06
2023-05-09T01:33:58.293Z,13.14
2023-05-09T01:39:02.166Z,13.17
2023-05-09T01:44:07.960Z,13.12
2023-05-09T01:49:11.967Z,13.06
2023-05-09T01:54:14.326Z,13.05
2023-05-09T01:59:16.702Z,13.01
2023-05-09T02:04:19.166Z,12.91
2023-05-09T02:09:22.061Z,12.87
2023-05-09T02:14:23.927Z,12.73
2023-05-09T02:19:26.133Z,12.73
2023-05-09T02:24:29.006Z,12.81
2023-05-09T02:29:40.020Z,12.64
2023-05-09T02:34:43.658Z,12.63
2023-05-09T02:39:46.143Z,12.65
2023-05-09T02:44:48.163Z,12.68
2023-05-09T02:49:51.113Z,12.68
2023-05-09T02:54:52.952Z,12.64
2023-05-09T02:59:54.616Z,12.48
2023-05-09T03:04:57.526Z,12.40
2023-05-09T03:09:59.752Z,12.30
2023-05-09T03:15:02.469Z,12.27
2023-05-09T03:20:07.910Z,12.24
2023-05-09T03:25:10.230Z,12.05
2023-05-09T03:30:12.878Z,11.89
2023-05-09T03:35:16.296Z,11.84
2023-05-09T03:40:18.371Z,11.74
2023-05-09T03:45:28.644Z,11.51
2023-05-09T03:50:31.259Z,11.23
2023-05-09T03:55:34.303Z,11.25
2023-05-09T04:00:36.476Z,11.16
2023-05-09T04:05:44.843Z,11.08
2023-05-09T04:10:53.630Z,10.98
2023-05-09T04:15:56.049Z,10.96
2023-05-09T04:20:58.797Z,10.87
2023-05-09T04:26:01.509Z,11.04
2023-05-09T04:31:04.295Z,11.09
2023-05-09T04:36:07.832Z,11.28
2023-05-09T04:41:10.324Z,11.29
2023-05-09T04:46:12.169Z,11.15
2023-05-09T04:51:13.947Z,11.28
2023-05-09T04:56:15.963Z,11.41
2023-05-09T05:01:19.313Z,11.50
2023-05-09T05:06:21.611Z,11.45
2023-05-09T05:11:23.618Z,11.50
2023-05-09T05:16:25.621Z,11.63
2023-05-09T05:21:27.773Z,11.74
2023-05-09T05:26:29.636Z,11.85
2023-05-09T05:31:32.342Z,12.00
2023-05-09T05:36:34.277Z,12.28
2023-05-09T05:41:36.520Z,12.92
2023-05-09T05:46:40.290Z,13.16
2023-05-09T05:51:42.569Z,13.34
2023-05-09T05:56:45.195Z,13.48
2023-05-09T06:01:47.066Z,13.49
2023-05-09T06:06:49.632Z,13.49
2023-05-09T06:11:52.128Z,13.58
2023-05-09T06:16:54.635Z,13.68
2023-05-09T06:21:56.663Z,13.65
2023-05-09T06:26:58.427Z,13.51
2023-05-09T06:32:01.284Z,13.53
2023-05-09T06:37:03.265Z,13.54
2023-05-09T06:42:05.099Z,13.64
2023-05-09T06:47:12.172Z,13.75
2023-05-09T06:52:15.667Z,13.87
2023-05-09T06:57:17.582Z,13.88
2023-05-09T07:02:19.308Z,13.92
2023-05-09T07:07:21.072Z,14.04
2023-05-09T07:12:22.974Z,14.18
2023-05-09T07:17:25.188Z,14.21
2023-05-09T07:22:28.235Z,14.31
2023-05-09T07:27:32.031Z,14.54
2023-05-09T07:32:34.355Z,14.77
2023-05-09T07:37:36.853Z,14.91
2023-05-09T07:42:39.451Z,15.01
2023-05-09T07:47:41.707Z,15.19
2023-05-09T07:52:43.476Z,15.30
2023-05-09T07:57:45.378Z,15.41
2023-05-09T08:02:47.193Z,15.45
2023-05-09T08:07:48.952Z,15.46
2023-05-09T08:12:51.281Z,15.62
2023-05-09T08:17:53.741Z,15.78
2023-05-09T08:22:56.155Z,15.88
2023-05-09T08:27:58.016Z,15.93
2023-05-09T08:32:59.777Z,16.07
2023-05-09T08:38:01.526Z,16.17
2023-05-09T08:43:06.099Z,16.34
2023-05-09T08:48:09.137Z,16.49
2023-05-09T08:53:12.288Z,16.55
2023-05-09T08:58:14.613Z,16.67
2023-05-09T09:03:17.370Z,16.90
2023-05-09T09:08:20.593Z,16.91
2023-05-09T09:13:23.292Z,17.07
2023-05-09T09:18:29.775Z,17.23
2023-05-09T09:23:32.896Z,17.32
2023-05-09T09:28:35.240Z,17.50
2023-05-09T09:33:36.870Z,17.72
2023-05-09T09:38:43.901Z,17.94
2023-05-09T09:43:47.110Z,18.01
2023-05-09T09:48:52.913Z,17.94
2023-05-09T09:53:55.664Z,18.15
2023-05-09T09:59:09.921Z,17.98
2023-05-09T10:04:16.583Z,18.21
2023-05-09T10:09:18.922Z,18.43
2023-05-09T10:14:23.342Z,18.29
2023-05-09T10:19:27.238Z,18.53
2023-05-09T10:24:42.111Z,18.83
2023-05-09T10:29:51.489Z,18.99
2023-05-09T10:35:01.947Z,19.23
2023-05-09T10:40:05.113Z,19.18
2023-05-09T10:45:09.505Z,19.37
2023-05-09T10:50:13.158Z,19.59
2023-05-09T10:55:15.648Z,19.72
2023-05-09T11:00:24.476Z,19.32
2023-05-09T11:05:39.140Z,19.68
2023-05-09T11:10:44.840Z,19.81
2023-05-09T11:16:02.064Z,19.96
2023-05-09T11:21:11.442Z,20.18
2023-05-09T11:26:14.710Z,20.27
2023-05-09T11:31:18.455Z,20.23
2023-05-09T11:36:25.323Z,20.41
2023-05-09T11:41:27.777Z,20.48
2023-05-09T11:46:29.588Z,20.35
2023-05-09T11:51:31.384Z,20.72
2023-05-09T11:56:34.985Z,20.76
2023-05-09T12:01:36.801Z,20.93
2023-05-09T12:06:38.613Z,21.13
2023-05-09T12:11:49.846Z,21.31
2023-05-09T12:16:52.038Z,21.30
2023-05-09T12:21:58.692Z,21.46
2023-05-09T12:27:00.709Z,21.64
2023-05-09T12:32:02.914Z,21.79
2023-05-09T12:37:18.004Z,21.96
2023-05-09T12:42:19.666Z,22.16
2023-05-09T12:47:21.324Z,22.38
2023-05-09T12:52:23.030Z,22.53
2023-05-09T12:57:29.376Z,22.27
2023-05-09T13:02:42.004Z,22.19
2023-05-09T13:07:49.933Z,22.45
2023-05-09T13:12:52.758Z,22.32
2023-05-09T13:17:54.510Z,22.38
2023-05-09T13:22:56.365Z,22.55
2023-05-09T13:27:58.211Z,22.63
2023-05-09T13:33:04.100Z,22.79
2023-05-09T13:38:14.760Z,22.83
2023-05-09T13:43:16.454Z,23.10
2023-05-09T13:48:18.070Z,23.30
2023-05-09T13:53:20.169Z,23.06
2023-05-09T13:58:21.915Z,23.34
2023-05-09T14:03:23.968Z,23.21
2023-05-09T14:08:25.840Z,23.01
2023-05-09T14:13:28.086Z,22.80
2023-05-09T14:18:30.745Z,22.71
2023-05-09T14:23:32.452Z,22.99
2023-05-09T14:28:34.335Z,23.11
2023-05-09T14:33:36.151Z,23.15
2023-05-09T14:38:38.079Z,23.14
2023-05-09T14:43:39.723Z,23.16
2023-05-09T14:48:41.501Z,23.47
2023-05-09T14:53:43.500Z,23.73
2023-05-09T14:58:45.397Z,23.89
2023-05-09T15:03:48.092Z,23.82
2023-05-09T15:08:49.833Z,23.38
2023-05-09T15:13:53.460Z,23.03
2023-05-09T15:18:55.389Z,22.89
2023-05-09T15:23:58.172Z,22.82
2023-05-09T15:28:59.791Z,22.86
2023-05-09T15:34:01.826Z,22.92
2023-05-09T15:39:05.032Z,22.92
2023-05-09T15:44:07.326Z,23.05
2023-05-09T15:49:09.028Z,22.75
2023-05-09T15:54:10.944Z,22.58
2023-05-09T15:59:12.633Z,22.41
2023-05-09T16:04:19.580Z,22.32
2023-05-09T16:09:21.733Z,22.31
2023-05-09T16:14:23.523Z,22.29
2023-05-09T16:19:25.389Z,22.08
2023-05-09T16:24:27.142Z,21.89
2023-05-09T16:29:29.017Z,21.83
2023-05-09T16:34:30.766Z,21.84
2023-05-09T16:39:32.665Z,22.10
2023-05-09T16:44:34.350Z,21.98
2023-05-09T16:49:36.416Z,21.74
2023-05-09T16:54:38.177Z,21.79
2023-05-09T16:59:40.051Z,21.82
2023-05-09T17:04:42.361Z,21.68
2023-05-09T17:09:44.688Z,21.57
2023-05-09T17:14:47.774Z,21.37
2023-05-09T17:19:49.442Z,21.13
2023-05-09T17:24:51.273Z,21.12
2023-05-09T17:29:52.949Z,20.98
2023-05-09T17:34:54.683Z,20.85
2023-05-09T17:39:56.431Z,20.70
2023-05-09T17:44:58.237Z,20.66
2023-05-09T17:49:59.964Z,20.54
2023-05-09T17:55:01.988Z,20.52
2023-05-09T18:00:06.960Z,20.46
2023-05-09T18:05:15.309Z,20.22
2023-05-09T18:10:17.656Z,20.14
2023-05-09T18:15:19.460Z,19.96
2023-05-09T18:20:21.504Z,19.80
2023-05-09T18:25:24.622Z,19.66
2023-05-09T18:30:27.411Z,19.58
2023-05-09T18:35:29.208Z,19.43
2023-05-09T18:40:32.501Z,19.20
2023-05-09T18:45:34.566Z,19.05
2023-05-09T18:50:37.068Z,18.96
2023-05-09T18:55:38.834Z,18.84
2023-05-09T19:00:40.618Z,18.75
2023-05-09T19:05:42.865Z,18.73
2023-05-09T19:10:44.820Z,18.77
2023-05-09T19:15:47.251Z,18.78
2023-05-09T19:20:49.192Z,18.72
2023-05-09T19:25:53.659Z,18.77
2023-05-09T19:30:57.036Z,18.76
2023-05-09T19:35:58.744Z,18.75
2023-05-09T19:41:00.482Z,18.69
2023-05-09T19:46:02.249Z,18.58
2023-05-09T19:51:04.416Z,18.44
2023-05-09T19:56:08.112Z,18.39
2023-05-09T20:01:10.032Z,18.30
2023-05-09T20:06:12.783Z,18.21
2023-05-09T20:11:14.852Z,18.17
2023-05-09T20:16:16.756Z,17.97
2023-05-09T20:21:18.657Z,17.83
2023-05-09T20:26:23.190Z,17.69
2023-05-09T20:31:26.273Z,17.68
2023-05-09T20:36:28.573Z,17.65
2023-05-09T20:41:30.697Z,17.73
2023-05-09T20:46:32.466Z,17.80
2023-05-09T20:51:34.299Z,17.84
2023-05-09T20:56:36.112Z,17.85
2023-05-09T21:01:40.576Z,17.85
2023-05-09T21:06:42.704Z,17.89
2023-05-09T21:11:45.701Z,17.87
2023-05-09T21:16:47.518Z,17.87
2023-05-09T21:21:49.657Z,17.93
2023-05-09T21:26:51.362Z,17.77
2023-05-09T21:31:53.539Z,17.66
2023-05-09T21:36:55.480Z,17.76
2023-05-09T21:41:57.200Z,17.75
2023-05-09T21:46:59.079Z,17.78
2023-05-09T21:52:00.908Z,17.62
2023-05-09T21:57:02.874Z,17.58
2023-05-09T22:02:05.218Z,17.43
2023-05-09T22:07:06.963Z,17.41
2023-05-09T22:12:08.960Z,17.30
2023-05-09T22:17:10.697Z,17.00
2023-05-09T22:22:13.089Z,16.68
2023-05-09T22:27:14.813Z,16.62
2023-05-09T22:32:16.523Z,16.59
2023-05-09T22:37:18.220Z,16.55
2023-05-09T22:42:21.629Z,16.65
2023-05-09T22:47:23.512Z,16.75
2023-05-09T22:52:25.325Z,16.84
2023-05-09T22:57:27.238Z,16.84
2023-05-09T23:02:29.088Z,16.96
2023-05-09T23:07:30.837Z,16.99
2023-05-09T23:12:32.445Z,17.03
2023-05-09T23:17:34.223Z,17.18
2023-05-09T23:22:35.969Z,17.18
2023-05-09T23:27:40.459Z,17.20
2023-05-09T23:32:42.739Z,17.25
2023-05-09T23:37:44.674Z,17.22
2023-05-09T23:42:46.432Z,17.18
2023-05-09T23:47:48.220Z,17.05
2023-05-09T23:52:51.045Z,16.99
2023-05-09T23:57:52.645Z,16.95
